Foz do Iguacu, Brazil
Current Conditions -  °F | °C
As of 7:00 AM on Sunday 23 Nov 2014 (Local Time) from SBFI Reporting Station
Clear Clear  
Wind Chill: 57°   Ceiling: Unl
Heat Index: 57°   Visibility: 6mi
Dew Point: 57°   Wind: 2mph
Humidity: 100%   Direction: 180°S
Pressure: 29.91"   Gusts: NA
Location:  25.55°S, 54.58°W
Report Text: SBFI 230900Z 18002KT CAVOK 14/14 Q1013
Loading
Personal Weather Stations






























Interactive Weather Map New forecast layout! Learn more

10-Day Weather Forecast

Advertisements
Track Severe Weather on mobile